createdAt,value
2019-05-01T00:00:15.820Z,28.17
2019-05-01T00:02:53.343Z,27.00
2019-05-01T00:05:25.060Z,27.90
2019-05-01T00:07:52.676Z,28.33
2019-05-01T00:10:20.606Z,29.70
2019-05-01T00:12:48.265Z,28.30
2019-05-01T00:15:16.067Z,28.13
2019-05-01T00:17:44.210Z,28.43
2019-05-01T00:20:13.650Z,30.40
2019-05-01T00:22:41.294Z,28.97
2019-05-01T00:25:09.016Z,29.43
2019-05-01T00:27:36.659Z,30.43
2019-05-01T00:30:05.732Z,30.03
2019-05-01T00:32:33.411Z,28.87
2019-05-01T00:35:01.019Z,30.53
2019-05-01T00:37:28.666Z,30.70
2019-05-01T00:39:56.272Z,32.13
2019-05-01T00:42:23.961Z,32.03
2019-05-01T00:44:51.594Z,32.20
2019-05-01T00:47:19.236Z,30.73
2019-05-01T00:49:46.863Z,32.00
2019-05-01T00:52:14.546Z,31.17
2019-05-01T00:54:44.023Z,30.47
2019-05-01T00:57:34.206Z,31.50
2019-05-01T01:00:21.471Z,31.10
2019-05-01T01:02:51.053Z,30.57
2019-05-01T01:05:18.780Z,30.73
2019-05-01T01:07:46.417Z,31.90
2019-05-01T01:10:14.126Z,30.37
2019-05-01T01:12:41.772Z,30.87
2019-05-01T01:15:10.845Z,32.17
2019-05-01T01:17:38.488Z,30.20
2019-05-01T01:20:06.617Z,31.10
2019-05-01T01:22:34.273Z,30.33
2019-05-01T01:25:01.932Z,32.47
2019-05-01T01:27:29.578Z,32.67
2019-05-01T01:29:57.226Z,32.70
2019-05-01T01:32:24.835Z,32.17
2019-05-01T01:34:52.478Z,31.97
2019-05-01T01:37:20.111Z,31.20
2019-05-01T01:39:47.766Z,32.03
2019-05-01T01:42:15.391Z,32.90
2019-05-01T01:44:52.629Z,32.47
2019-05-01T01:47:20.260Z,29.73
2019-05-01T01:49:47.979Z,31.83
2019-05-01T01:52:15.637Z,31.50
2019-05-01T01:54:43.319Z,32.20
2019-05-01T01:57:12.812Z,33.60
2019-05-01T01:59:40.509Z,32.47
2019-05-01T02:02:24.692Z,33.73
2019-05-01T02:05:16.181Z,32.00
2019-05-01T02:07:43.906Z,32.13
2019-05-01T02:10:11.674Z,33.50
2019-05-01T02:12:40.237Z,33.33
2019-05-01T02:15:08.979Z,33.10
2019-05-01T02:17:36.596Z,33.27
2019-05-01T02:20:05.489Z,32.13
2019-05-01T02:22:33.222Z,33.23
2019-05-01T02:25:00.876Z,31.73
2019-05-01T02:27:46.995Z,32.93
2019-05-01T02:30:16.082Z,33.77
2019-05-01T02:32:44.757Z,32.60
2019-05-01T02:35:12.426Z,32.67
2019-05-01T02:37:40.151Z,32.50
2019-05-01T02:40:37.648Z,34.87
2019-05-01T02:43:05.953Z,34.40
2019-05-01T02:45:35.440Z,33.87
2019-05-01T02:48:03.163Z,33.63
2019-05-01T02:50:32.586Z,35.23
2019-05-01T02:53:00.314Z,34.37
2019-05-01T02:55:34.045Z,34.13
2019-05-01T02:58:02.108Z,32.33
2019-05-01T03:00:38.769Z,34.40
2019-05-01T03:03:06.535Z,34.30
2019-05-01T03:05:34.257Z,34.17
2019-05-01T03:08:02.096Z,34.00
2019-05-01T03:10:29.768Z,32.23
2019-05-01T03:12:57.802Z,33.63
2019-05-01T03:15:27.070Z,32.10
2019-05-01T03:18:26.014Z,33.83
2019-05-01T03:21:01.620Z,33.50
2019-05-01T03:23:33.272Z,32.73
2019-05-01T03:26:00.946Z,32.80
2019-05-01T03:28:28.577Z,34.13
2019-05-01T03:30:56.438Z,35.23
2019-05-01T03:33:24.086Z,32.77
2019-05-01T03:35:52.055Z,33.93
2019-05-01T03:38:19.740Z,37.23
2019-05-01T03:40:47.893Z,36.23
2019-05-01T03:43:16.949Z,35.30
2019-05-01T03:45:44.677Z,35.10
2019-05-01T03:48:12.339Z,34.37
2019-05-01T03:50:40.102Z,34.27
2019-05-01T03:53:07.845Z,35.00
2019-05-01T03:55:35.923Z,35.77
2019-05-01T03:58:03.966Z,34.43
2019-05-01T04:01:03.115Z,35.63
2019-05-01T04:03:34.827Z,35.03
2019-05-01T04:06:02.689Z,34.40
2019-05-01T04:08:30.799Z,35.73
2019-05-01T04:10:58.455Z,35.93
2019-05-01T04:13:26.096Z,37.33
2019-05-01T04:15:54.003Z,40.33
2019-05-01T04:18:21.877Z,40.23
2019-05-01T04:20:49.687Z,43.00
2019-05-01T04:23:17.352Z,46.77
2019-05-01T04:25:45.036Z,50.77
2019-05-01T04:28:31.397Z,58.63
2019-05-01T04:31:21.374Z,58.30
2019-05-01T04:33:50.979Z,62.83
2019-05-01T04:36:24.102Z,61.07
2019-05-01T04:38:51.712Z,58.63
2019-05-01T04:41:19.499Z,57.83
2019-05-01T04:43:47.134Z,56.17
2019-05-01T04:46:16.387Z,56.17
2019-05-01T04:48:44.271Z,54.03
2019-05-01T04:51:12.334Z,53.47
2019-05-01T04:53:40.418Z,51.83
2019-05-01T04:56:08.052Z,47.30
2019-05-01T04:58:35.734Z,47.30
2019-05-01T05:01:03.430Z,48.07
2019-05-01T05:03:31.046Z,48.73
2019-05-01T05:05:58.994Z,48.93
2019-05-01T05:08:26.738Z,50.60
2019-05-01T05:10:55.551Z,45.00
2019-05-01T05:13:30.141Z,47.80
2019-05-01T05:16:16.654Z,46.43
2019-05-01T05:18:44.627Z,47.90
2019-05-01T05:21:12.536Z,45.23
2019-05-01T05:23:40.596Z,45.53
2019-05-01T05:26:08.528Z,41.33
2019-05-01T05:28:38.466Z,41.93
2019-05-01T05:31:06.496Z,43.47
2019-05-01T05:33:34.759Z,42.77
2019-05-01T05:36:03.157Z,39.23
2019-05-01T05:39:06.196Z,40.73
2019-05-01T05:41:34.571Z,39.17
2019-05-01T05:44:02.334Z,39.40
2019-05-01T05:46:29.969Z,40.30
2019-05-01T05:48:57.646Z,41.17
2019-05-01T05:51:50.934Z,38.50
2019-05-01T05:54:39.042Z,38.80
2019-05-01T05:57:16.932Z,39.60
2019-05-01T05:59:46.429Z,37.17
2019-05-01T06:02:33.887Z,39.53
2019-05-01T06:05:19.862Z,41.10
2019-05-01T06:08:20.947Z,40.13
2019-05-01T06:11:11.333Z,39.67
2019-05-01T06:13:58.944Z,38.97
2019-05-01T06:16:40.330Z,37.17
2019-05-01T06:19:28.343Z,37.17
2019-05-01T06:22:28.111Z,37.80
2019-05-01T06:25:22.834Z,36.57
2019-05-01T06:27:49.207Z,36.50
2019-05-01T06:30:17.166Z,39.63
2019-05-01T06:32:44.782Z,36.90
2019-05-01T06:35:12.422Z,36.03
2019-05-01T06:37:56.039Z,37.90
2019-05-01T06:40:37.255Z,37.93
2019-05-01T06:43:05.063Z,38.20
2019-05-01T06:45:32.963Z,37.50
2019-05-01T06:48:03.414Z,38.17
2019-05-01T06:50:45.786Z,44.67
2019-05-01T06:53:14.686Z,41.60
2019-05-01T06:55:42.425Z,41.77
2019-05-01T06:58:10.349Z,42.63
2019-05-01T07:00:42.693Z,41.20
2019-05-01T07:03:10.471Z,40.83
2019-05-01T07:05:38.157Z,44.37
2019-05-01T07:08:05.850Z,43.67
2019-05-01T07:10:43.798Z,44.73
2019-05-01T07:13:04.990Z,42.77
2019-05-01T07:15:33.111Z,45.23
2019-05-01T07:18:01.337Z,45.60
2019-05-01T07:20:54.692Z,46.67
2019-05-01T07:23:22.643Z,45.43
2019-05-01T07:25:50.347Z,47.83
2019-05-01T07:28:18.067Z,47.30
2019-05-01T07:30:49.854Z,47.10
2019-05-01T07:33:18.339Z,47.30
2019-05-01T07:35:47.947Z,47.33
2019-05-01T07:38:15.746Z,47.90
2019-05-01T07:40:43.525Z,50.10
2019-05-01T07:43:33.523Z,48.70
2019-05-01T07:46:18.457Z,47.80
2019-05-01T07:48:45.109Z,45.40
2019-05-01T07:51:12.854Z,51.33
2019-05-01T07:53:40.828Z,53.20
2019-05-01T07:56:10.831Z,46.33
2019-05-01T07:58:38.695Z,47.90
2019-05-01T08:01:18.466Z,50.77
2019-05-01T08:03:44.253Z,47.47
2019-05-01T08:06:16.179Z,47.00
2019-05-01T08:08:41.359Z,47.23
2019-05-01T08:11:10.367Z,47.40
2019-05-01T08:13:38.128Z,48.40
2019-05-01T08:16:07.042Z,50.23
2019-05-01T08:18:49.798Z,50.47
2019-05-01T08:21:28.627Z,51.03
2019-05-01T08:23:56.266Z,51.17
2019-05-01T08:26:23.914Z,53.47
2019-05-01T08:29:29.264Z,52.17
2019-05-01T08:32:13.828Z,52.53
2019-05-01T08:34:48.703Z,51.53
2019-05-01T08:37:10.879Z,54.03
2019-05-01T08:39:39.669Z,53.93
2019-05-01T08:42:08.178Z,53.67
2019-05-01T08:44:44.420Z,53.37
2019-05-01T08:47:25.793Z,55.07
2019-05-01T08:50:01.068Z,54.00
2019-05-01T08:52:28.693Z,57.13
2019-05-01T08:54:56.340Z,57.03
2019-05-01T08:57:23.964Z,53.07
2019-05-01T08:59:55.683Z,56.03
2019-05-01T09:02:24.263Z,53.70
2019-05-01T09:05:01.701Z,55.23
2019-05-01T09:07:23.993Z,57.27
2019-05-01T09:09:50.791Z,57.57
2019-05-01T09:12:18.425Z,54.33
2019-05-01T09:14:46.034Z,57.00
2019-05-01T09:17:13.674Z,56.57
2019-05-01T09:19:41.283Z,55.40
2019-05-01T09:22:08.928Z,54.27
2019-05-01T09:24:36.578Z,53.67
2019-05-01T09:27:14.567Z,59.60
2019-05-01T09:29:51.628Z,56.23
2019-05-01T09:32:18.701Z,55.53
2019-05-01T09:34:46.434Z,54.60
2019-05-01T09:37:14.051Z,54.13
2019-05-01T09:39:41.847Z,55.80
2019-05-01T09:42:11.249Z,55.67
2019-05-01T09:44:38.885Z,56.57
2019-05-01T09:47:06.918Z,56.17
2019-05-01T09:49:34.629Z,55.63
2019-05-01T09:52:34.021Z,57.13
2019-05-01T09:55:12.274Z,58.17
2019-05-01T09:57:41.497Z,58.57
2019-05-01T10:00:14.430Z,56.07
2019-05-01T10:02:43.826Z,57.20
2019-05-01T10:05:11.514Z,58.67
2019-05-01T10:07:39.122Z,57.77
2019-05-01T10:10:06.993Z,60.47
2019-05-01T10:12:34.593Z,61.13
2019-05-01T10:15:02.249Z,62.03
2019-05-01T10:17:29.862Z,62.77
2019-05-01T10:19:57.499Z,62.07
2019-05-01T10:22:25.152Z,63.50
2019-05-01T10:24:52.814Z,63.50
2019-05-01T10:27:23.973Z,64.03
2019-05-01T10:30:09.708Z,63.10
2019-05-01T10:32:52.746Z,64.27
2019-05-01T10:35:43.209Z,63.13
2019-05-01T10:38:10.931Z,66.77
2019-05-01T10:40:38.562Z,67.03
2019-05-01T10:43:06.296Z,64.83
2019-05-01T10:45:35.314Z,64.20
2019-05-01T10:48:03.041Z,66.03
2019-05-01T10:50:30.671Z,64.00
2019-05-01T10:52:58.303Z,64.53
2019-05-01T10:55:26.094Z,64.63
2019-05-01T10:57:53.715Z,66.73
2019-05-01T11:00:21.359Z,65.70
2019-05-01T11:02:48.972Z,69.20
2019-05-01T11:05:16.630Z,68.80
2019-05-01T11:07:44.237Z,68.90
2019-05-01T11:10:11.975Z,69.53
2019-05-01T11:12:39.615Z,66.37
2019-05-01T11:15:07.268Z,67.43
2019-05-01T11:17:34.882Z,68.77
2019-05-01T11:20:02.556Z,72.80
2019-05-01T11:22:30.184Z,71.97
2019-05-01T11:24:57.825Z,70.50
2019-05-01T11:27:25.462Z,74.67
2019-05-01T11:29:53.120Z,79.83
2019-05-01T11:32:37.234Z,70.43
2019-05-01T11:35:24.564Z,71.63
2019-05-01T11:38:00.507Z,76.83
2019-05-01T11:40:37.218Z,73.70
2019-05-01T11:43:04.840Z,75.57
2019-05-01T11:45:32.546Z,78.13
2019-05-01T11:48:00.170Z,75.40
2019-05-01T11:50:27.809Z,79.43
2019-05-01T11:52:55.439Z,76.60
2019-05-01T11:55:23.115Z,71.17
2019-05-01T11:57:50.720Z,76.63
2019-05-01T12:00:19.461Z,64.87
2019-05-01T12:02:47.083Z,63.77
2019-05-01T12:05:14.841Z,62.30
2019-05-01T12:07:42.434Z,63.60
2019-05-01T12:10:14.296Z,65.17
2019-05-01T12:12:40.938Z,63.70
2019-05-01T12:15:10.083Z,63.10
2019-05-01T12:17:42.509Z,57.67
2019-05-01T12:20:10.149Z,56.43
2019-05-01T12:22:37.843Z,56.33
2019-05-01T12:25:05.486Z,56.37
2019-05-01T12:27:33.134Z,58.80
2019-05-01T12:30:00.767Z,51.37
2019-05-01T12:32:28.404Z,53.60
2019-05-01T12:34:56.012Z,52.40
2019-05-01T12:37:39.771Z,52.10
2019-05-01T12:40:08.157Z,50.10
2019-05-01T12:42:36.028Z,48.70
2019-05-01T12:45:04.832Z,50.40
2019-05-01T12:47:52.513Z,47.07
2019-05-01T12:50:20.317Z,47.67
2019-05-01T12:53:10.337Z,46.10
2019-05-01T12:55:57.473Z,47.17
2019-05-01T12:58:25.115Z,42.27
2019-05-01T13:00:53.200Z,41.02
2019-05-01T13:03:20.850Z,41.97
2019-05-01T13:05:48.461Z,42.80
2019-05-01T13:08:16.125Z,44.97
2019-05-01T13:10:43.807Z,46.20
2019-05-01T13:13:16.870Z,44.83
2019-05-01T13:15:44.583Z,44.43
2019-05-01T13:18:12.248Z,48.03
2019-05-01T13:20:39.912Z,48.97
2019-05-01T13:23:07.554Z,47.70
2019-05-01T13:25:35.199Z,46.40
2019-05-01T13:28:21.870Z,47.53
2019-05-01T13:33:42.551Z,45.95
2019-05-01T13:36:10.357Z,42.95
2019-05-01T13:38:38.030Z,42.45
2019-05-01T13:41:05.837Z,38.45
2019-05-01T13:43:33.528Z,40.25
2019-05-01T13:46:01.251Z,39.98
2019-05-01T13:48:29.412Z,39.50
2019-05-01T13:50:57.054Z,39.55
2019-05-01T13:53:24.870Z,39.38
2019-05-01T13:55:52.596Z,43.38
2019-05-01T13:58:20.406Z,46.63
2019-05-01T14:00:48.084Z,44.55
2019-05-01T14:03:15.978Z,40.23
2019-05-01T14:05:44.100Z,37.93
2019-05-01T14:08:11.773Z,39.92
2019-05-01T14:10:39.460Z,42.53
2019-05-01T14:13:07.206Z,42.53
2019-05-01T14:15:34.899Z,41.58
2019-05-01T14:18:03.895Z,39.48
2019-05-01T14:21:00.291Z,35.98
2019-05-01T14:23:38.854Z,35.78
2019-05-01T14:26:06.526Z,37.08
2019-05-01T14:28:34.241Z,36.05
2019-05-01T14:31:01.919Z,35.70
2019-05-01T14:33:29.810Z,37.95
2019-05-01T14:35:57.444Z,37.15
2019-05-01T14:38:29.043Z,37.83
2019-05-01T14:40:56.670Z,40.03
2019-05-01T14:43:24.388Z,39.13
2019-05-01T14:45:55.960Z,39.70
2019-05-01T14:48:26.962Z,35.70
2019-05-01T14:50:54.621Z,37.67
2019-05-01T14:53:22.349Z,37.75
2019-05-01T14:55:50.019Z,38.15
2019-05-01T14:58:24.529Z,40.17
2019-05-01T15:00:52.141Z,37.38
2019-05-01T15:03:20.218Z,38.73
2019-05-01T15:05:47.918Z,39.75
2019-05-01T15:08:15.580Z,37.10
2019-05-01T15:10:43.524Z,36.17
2019-05-01T15:13:20.828Z,34.38
2019-05-01T15:16:10.974Z,36.10
2019-05-01T15:18:57.619Z,36.77
2019-05-01T15:21:27.362Z,38.08
2019-05-01T15:23:55.218Z,36.70
2019-05-01T15:26:23.429Z,36.40
2019-05-01T15:28:51.115Z,35.70
2019-05-01T15:31:18.787Z,38.78
2019-05-01T15:33:46.516Z,36.42
2019-05-01T15:36:14.212Z,36.58
2019-05-01T15:38:41.983Z,36.88
2019-05-01T15:41:31.888Z,36.73
2019-05-01T15:44:17.659Z,38.05
2019-05-01T15:46:45.339Z,37.20
2019-05-01T15:49:13.002Z,37.23
2019-05-01T15:51:40.653Z,37.03
2019-05-01T15:54:08.373Z,29.18
2019-05-01T15:56:36.051Z,35.43
2019-05-01T15:59:03.725Z,36.77
2019-05-01T16:01:40.468Z,37.83
2019-05-01T16:04:09.874Z,37.38
2019-05-01T16:06:37.549Z,37.05
2019-05-01T16:09:05.787Z,38.35
2019-05-01T16:12:11.141Z,35.43
2019-05-01T16:14:39.594Z,37.85
2019-05-01T16:17:07.249Z,38.33
2019-05-01T16:19:34.946Z,40.15
2019-05-01T16:22:02.680Z,38.53
2019-05-01T16:24:32.667Z,39.15
2019-05-01T16:27:00.308Z,37.73
2019-05-01T16:29:27.973Z,37.95
2019-05-01T16:31:55.643Z,37.80
2019-05-01T16:34:26.262Z,37.85
2019-05-01T16:36:53.961Z,39.27
2019-05-01T16:39:50.162Z,38.73
2019-05-01T16:42:18.763Z,39.35
2019-05-01T16:44:46.529Z,40.10
2019-05-01T16:47:14.140Z,37.63
2019-05-01T16:49:41.960Z,39.23
2019-05-01T16:52:09.858Z,38.33
2019-05-01T16:54:37.770Z,38.55
2019-05-01T16:57:06.055Z,39.88
2019-05-01T16:59:33.755Z,40.58
2019-05-01T17:02:21.848Z,39.30
2019-05-01T17:05:08.324Z,38.97
2019-05-01T17:07:55.496Z,40.50
2019-05-01T17:10:28.398Z,42.13
2019-05-01T17:12:56.141Z,40.95
2019-05-01T17:15:27.888Z,39.78
2019-05-01T17:17:55.596Z,39.63
2019-05-01T17:20:24.340Z,40.27
2019-05-01T17:22:52.198Z,39.80
2019-05-01T17:25:22.449Z,39.37
2019-05-01T17:27:50.240Z,41.10
2019-05-01T17:30:22.594Z,38.93
2019-05-01T17:32:50.346Z,41.27
2019-05-01T17:35:18.034Z,38.33
2019-05-01T17:37:45.758Z,39.00
2019-05-01T17:40:13.574Z,39.47
2019-05-01T17:42:41.300Z,42.13
2019-05-01T17:45:08.969Z,39.70
2019-05-01T17:47:36.702Z,40.03
2019-05-01T17:50:04.601Z,40.97
2019-05-01T17:52:32.389Z,41.63
2019-05-01T17:55:01.428Z,41.77
2019-05-01T17:57:29.225Z,39.93
2019-05-01T17:59:59.032Z,41.87
2019-05-01T18:02:44.365Z,39.87
2019-05-01T18:05:27.643Z,39.43
2019-05-01T18:07:56.732Z,38.93
2019-05-01T18:10:24.395Z,39.20
2019-05-01T18:12:52.144Z,40.87
2019-05-01T18:15:19.821Z,39.33
2019-05-01T18:17:47.493Z,39.83
2019-05-01T18:20:15.284Z,40.40
2019-05-01T18:23:12.541Z,37.80
2019-05-01T18:25:58.002Z,39.70
2019-05-01T18:28:43.158Z,41.47
2019-05-01T18:31:15.727Z,40.70
2019-05-01T18:33:43.411Z,39.87
2019-05-01T18:36:11.165Z,39.57
2019-05-01T18:39:01.542Z,40.70
2019-05-01T18:41:37.433Z,42.30
2019-05-01T18:44:09.775Z,40.97
2019-05-01T18:46:34.680Z,43.20
2019-05-01T18:49:02.379Z,40.43
2019-05-01T18:51:30.049Z,41.37
2019-05-01T18:53:58.837Z,42.67
2019-05-01T18:56:26.643Z,42.73
2019-05-01T18:58:54.306Z,42.77
2019-05-01T19:01:22.052Z,43.13
2019-05-01T19:03:49.766Z,42.00
2019-05-01T19:06:17.556Z,42.30
2019-05-01T19:08:45.318Z,42.40
2019-05-01T19:11:14.350Z,43.93
2019-05-01T19:13:42.048Z,44.53
2019-05-01T19:16:09.909Z,48.83
2019-05-01T19:18:37.758Z,46.50
2019-05-01T19:21:05.795Z,44.00
2019-05-01T19:23:33.676Z,41.70
2019-05-01T19:26:06.346Z,42.13
2019-05-01T19:28:31.962Z,42.37
2019-05-01T19:30:59.637Z,41.83
2019-05-01T19:33:27.379Z,43.50
2019-05-01T19:35:55.208Z,44.47
2019-05-01T19:38:23.052Z,44.17
2019-05-01T19:40:50.700Z,41.07
2019-05-01T19:43:18.453Z,44.33
2019-05-01T19:45:46.182Z,44.37
2019-05-01T19:48:13.976Z,44.97
2019-05-01T19:50:47.954Z,43.27
2019-05-01T19:53:14.765Z,42.70
2019-05-01T19:55:44.781Z,43.30
2019-05-01T19:58:10.197Z,43.87
2019-05-01T20:00:51.502Z,45.37
2019-05-01T20:03:19.239Z,44.37
2019-05-01T20:05:47.108Z,45.50
2019-05-01T20:08:14.798Z,45.17
2019-05-01T20:10:42.435Z,47.00
2019-05-01T20:13:12.348Z,45.30
2019-05-01T20:15:39.600Z,45.77
2019-05-01T20:18:07.262Z,47.77
2019-05-01T20:20:34.996Z,44.53
2019-05-01T20:23:02.674Z,45.43
2019-05-01T20:25:30.402Z,46.93
2019-05-01T20:27:58.134Z,44.87
2019-05-01T20:30:26.806Z,46.67
2019-05-01T20:32:58.282Z,45.57
2019-05-01T20:35:28.278Z,46.60
2019-05-01T20:37:53.528Z,47.27
2019-05-01T20:40:21.245Z,48.77
2019-05-01T20:42:48.919Z,47.20
2019-05-01T20:45:18.347Z,48.30
2019-05-01T20:47:48.254Z,48.83
2019-05-01T20:50:15.840Z,49.57
2019-05-01T20:52:43.528Z,48.03
2019-05-01T20:55:11.337Z,46.33
2019-05-01T20:57:40.666Z,46.97
2019-05-01T21:00:11.261Z,45.23
2019-05-01T21:02:42.999Z,45.40
2019-05-01T21:05:34.078Z,43.10
2019-05-01T21:08:08.524Z,43.07
2019-05-01T21:10:50.710Z,43.17
2019-05-01T21:13:23.212Z,41.50
2019-05-01T21:15:48.413Z,42.00
2019-05-01T21:18:16.430Z,42.97
2019-05-01T21:20:44.104Z,41.07
2019-05-01T21:23:11.819Z,40.50
2019-05-01T21:25:39.446Z,41.63
2019-05-01T21:28:07.203Z,43.07
2019-05-01T21:30:38.782Z,40.27
2019-05-01T21:33:10.338Z,40.77
2019-05-01T21:35:34.128Z,39.33
2019-05-01T21:38:01.824Z,38.07
2019-05-01T21:40:38.689Z,36.50
2019-05-01T21:42:59.102Z,36.33
2019-05-01T21:45:26.834Z,34.57
2019-05-01T21:47:54.475Z,33.27
2019-05-01T21:50:26.133Z,32.83
2019-05-01T21:52:53.951Z,32.17
2019-05-01T21:55:25.810Z,30.60
2019-05-01T21:57:52.846Z,31.17
2019-05-01T22:00:24.773Z,32.23
2019-05-01T22:02:52.386Z,31.30
2019-05-01T22:05:20.182Z,30.30
2019-05-01T22:07:47.812Z,30.07
2019-05-01T22:10:15.597Z,30.30
2019-05-01T22:12:43.853Z,29.47
2019-05-01T22:15:20.663Z,29.50
2019-05-01T22:17:57.016Z,31.00
2019-05-01T22:20:31.198Z,30.73
2019-05-01T22:23:02.050Z,30.57
2019-05-01T22:25:36.341Z,30.30
2019-05-01T22:28:09.571Z,29.97
2019-05-01T22:30:46.203Z,30.40
2019-05-01T22:33:13.967Z,32.37
2019-05-01T22:35:44.809Z,31.37
2019-05-01T22:38:13.729Z,32.73
2019-05-01T22:41:07.152Z,33.87
2019-05-01T22:43:34.618Z,34.67
2019-05-01T22:46:03.356Z,33.27
2019-05-01T22:48:31.247Z,34.63
2019-05-01T22:51:04.067Z,35.27
2019-05-01T22:53:31.701Z,34.73
2019-05-01T22:56:02.214Z,36.53
2019-05-01T22:58:28.867Z,34.63
2019-05-01T23:00:57.301Z,35.33
2019-05-01T23:03:29.621Z,36.57
2019-05-01T23:05:57.313Z,34.00
2019-05-01T23:08:24.966Z,35.77
2019-05-01T23:10:52.646Z,36.53
2019-05-01T23:13:20.367Z,36.83
2019-05-01T23:15:51.450Z,35.33
2019-05-01T23:18:17.599Z,35.53
2019-05-01T23:20:45.250Z,37.03
2019-05-01T23:23:12.938Z,35.90
2019-05-01T23:25:49.876Z,35.20
2019-05-01T23:28:17.507Z,35.43
2019-05-01T23:30:45.189Z,35.23
2019-05-01T23:33:12.843Z,35.50
2019-05-01T23:35:40.492Z,35.47
2019-05-01T23:38:08.180Z,34.50
2019-05-01T23:40:35.902Z,34.73
2019-05-01T23:43:03.679Z,34.23
2019-05-01T23:45:31.379Z,36.80
2019-05-01T23:47:59.103Z,34.07
2019-05-01T23:50:26.796Z,36.77
2019-05-01T23:52:54.485Z,36.77
2019-05-01T23:55:23.049Z,37.13
2019-05-01T23:57:50.759Z,36.63
